Time;durP1;ratioP1;P1;durP2;ratioP2;P2;SDS_P1;SDS_P2;PMS_P1;PMS_P2;Temp;Humidity;BMP_temperature;BMP_pressure;BME280_temperature;BME280_humidity;BME280_pressure;Samples;Min_cycle;Max_cycle;Signal;HPM_P1;HPM_P2
2021/06/07 00:02:13;;;;;;;2.33;2.13;;;;;;;;;;5000488;28;20263;-78
2021/06/07 00:04:39;;;;;;;2.93;1.90;;;;;;;;;;5003013;28;20764;-78
2021/06/07 00:07:07;;;;;;;1.97;1.87;;;;;;;;;;4997723;28;20442;-77
2021/06/07 00:09:33;;;;;;;2.85;2.65;;;;;;;;;;5005685;28;20949;-78
2021/06/07 00:12:00;;;;;;;1.77;1.67;;;;;;;;;;5016838;28;20258;-78
2021/06/07 00:14:28;;;;;;;1.70;1.60;;;;;;;;;;5005997;28;20938;-77
2021/06/07 00:16:54;;;;;;;1.77;1.67;;;;;;;;;;5007058;28;20181;-77
2021/06/07 00:19:21;;;;;;;2.75;2.33;;;;;;;;;;5004905;28;20260;-77
2021/06/07 00:21:48;;;;;;;4.43;3.13;;;;;;;;;;4995376;28;20208;-77
2021/06/07 00:24:16;;;;;;;3.63;3.40;;;;;;;;;;5005359;28;20187;-77
2021/06/07 00:26:42;;;;;;;2.25;1.83;;;;;;;;;;4995098;28;20556;-77
2021/06/07 00:29:08;;;;;;;1.70;1.60;;;;;;;;;;5020927;28;20176;-76
2021/06/07 00:31:34;;;;;;;1.80;1.70;;;;;;;;;;5002890;28;21090;-78
2021/06/07 00:34:00;;;;;;;2.85;2.60;;;;;;;;;;5011443;28;20448;-77
2021/06/07 00:36:26;;;;;;;2.42;2.22;;;;;;;;;;5010606;28;20183;-77
2021/06/07 00:38:53;;;;;;;3.45;3.13;;;;;;;;;;5011933;28;20173;-77
2021/06/07 00:41:20;;;;;;;1.73;1.63;;;;;;;;;;5006028;28;20196;-78
2021/06/07 00:43:47;;;;;;;1.85;1.67;;;;;;;;;;5005980;28;20189;-78
2021/06/07 00:46:13;;;;;;;3.67;2.53;;;;;;;;;;5003027;28;20607;-77
2021/06/07 00:48:39;;;;;;;1.60;1.50;;;;;;;;;;5006015;28;20429;-77
2021/06/07 00:51:10;;;;;;;4.93;1.80;;;;;;;;;;5009891;28;20459;-78
2021/06/07 00:53:36;;;;;;;2.55;2.35;;;;;;;;;;5011273;28;20275;-77
2021/06/07 00:56:05;;;;;;;1.80;1.63;;;;;;;;;;5016171;28;20189;-78
2021/06/07 00:58:41;;;;;;;2.67;2.47;;;;;;;;;;5003438;28;20930;-77
2021/06/07 01:01:10;;;;;;;2.10;1.90;;;;;;;;;;5010714;28;20419;-78
2021/06/07 01:03:38;;;;;;;2.40;2.20;;;;;;;;;;5014620;28;20201;-81
2021/06/07 01:06:06;;;;;;;2.00;1.88;;;;;;;;;;5004646;28;20202;-78
2021/06/07 01:08:35;;;;;;;2.90;1.60;;;;;;;;;;5014137;28;20220;-77
2021/06/07 01:11:04;;;;;;;2.90;1.65;;;;;;;;;;4999914;28;20557;-78
2021/06/07 01:13:30;;;;;;;6.07;4.00;;;;;;;;;;5021177;28;20191;-81
2021/06/07 01:15:57;;;;;;;3.10;2.03;;;;;;;;;;5019653;28;20425;-77
2021/06/07 01:18:30;;;;;;;1.73;1.63;;;;;;;;;;5014277;28;20177;-78
2021/06/07 01:20:58;;;;;;;4.15;3.40;;;;;;;;;;5006041;28;20195;-81
2021/06/07 01:23:24;;;;;;;2.55;2.35;;;;;;;;;;4994292;28;20207;-78
2021/06/07 01:25:51;;;;;;;2.63;1.88;;;;;;;;;;5012133;28;20202;-77
2021/06/07 01:28:19;;;;;;;2.90;1.92;;;;;;;;;;5009842;28;20661;-79
2021/06/07 01:30:46;;;;;;;5.13;2.97;;;;;;;;;;5009544;28;20204;-77
2021/06/07 01:33:14;;;;;;;2.22;1.95;;;;;;;;;;5007471;28;20279;-77
2021/06/07 01:35:40;;;;;;;2.30;2.20;;;;;;;;;;5008549;28;20183;-80
2021/06/07 01:38:07;;;;;;;2.28;2.08;;;;;;;;;;5014303;28;20184;-77
2021/06/07 01:40:35;;;;;;;2.15;1.75;;;;;;;;;;5001083;28;20177;-77
2021/06/07 01:43:01;;;;;;;3.42;3.20;;;;;;;;;;5012186;28;20238;-77
2021/06/07 01:45:28;;;;;;;4.20;3.13;;;;;;;;;;5014687;28;20258;-78
2021/06/07 01:47:55;;;;;;;2.40;2.20;;;;;;;;;;5010560;28;20908;-78
2021/06/07 01:50:21;;;;;;;2.22;2.03;;;;;;;;;;4998694;28;20268;-77
2021/06/07 01:52:48;;;;;;;3.50;3.30;;;;;;;;;;5013039;28;20230;-77
2021/06/07 01:55:26;;;;;;;3.33;2.30;;;;;;;;;;5005463;28;20442;-79
2021/06/07 01:57:53;;;;;;;2.58;2.38;;;;;;;;;;5007499;28;20599;-77
2021/06/07 02:00:19;;;;;;;1.98;1.88;;;;;;;;;;5004202;28;20233;-78
2021/06/07 02:02:45;;;;;;;2.75;2.65;;;;;;;;;;5007072;28;20258;-78
2021/06/07 02:05:12;;;;;;;2.30;2.20;;;;;;;;;;5010437;28;20206;-78
2021/06/07 02:07:42;;;;;;;2.65;1.85;;;;;;;;;;4998974;28;20205;-77
2021/06/07 02:10:09;;;;;;;4.18;2.25;;;;;;;;;;5003656;28;20215;-77
2021/06/07 02:12:35;;;;;;;3.00;2.80;;;;;;;;;;5002065;28;20262;-77
2021/06/07 02:15:01;;;;;;;8.73;2.60;;;;;;;;;;5009506;28;20175;-78
2021/06/07 02:17:27;;;;;;;2.93;2.43;;;;;;;;;;5004823;28;20249;-78
2021/06/07 02:19:52;;;;;;;3.83;3.53;;;;;;;;;;5002400;28;20413;-78
2021/06/07 02:22:18;;;;;;;2.30;2.10;;;;;;;;;;5006008;28;20513;-79
2021/06/07 02:24:44;;;;;;;4.07;3.07;;;;;;;;;;5013294;28;20427;-79
2021/06/07 02:27:10;;;;;;;3.63;3.10;;;;;;;;;;5009145;28;20457;-79
2021/06/07 02:29:36;;;;;;;2.37;2.17;;;;;;;;;;5005269;28;20439;-79
2021/06/07 02:32:02;;;;;;;2.43;2.33;;;;;;;;;;5002294;28;20564;-79
2021/06/07 02:34:28;;;;;;;2.22;2.03;;;;;;;;;;5006140;28;20882;-77
2021/06/07 02:36:54;;;;;;;3.20;3.00;;;;;;;;;;4999829;28;20180;-78
2021/06/07 02:39:22;;;;;;;2.80;2.50;;;;;;;;;;4998865;28;20527;-79
2021/06/07 02:41:48;;;;;;;2.58;2.03;;;;;;;;;;5005249;28;20247;-79
2021/06/07 02:44:19;;;;;;;2.17;1.60;;;;;;;;;;4994079;28;20184;-77
2021/06/07 02:46:45;;;;;;;1.85;1.75;;;;;;;;;;5003891;28;20203;-77
2021/06/07 02:49:11;;;;;;;2.10;1.57;;;;;;;;;;5002573;28;20236;-77
2021/06/07 02:51:37;;;;;;;2.93;2.67;;;;;;;;;;5003082;28;20474;-77
2021/06/07 02:54:03;;;;;;;1.83;1.73;;;;;;;;;;5003751;28;20838;-77
2021/06/07 02:56:29;;;;;;;2.92;2.75;;;;;;;;;;5000235;28;20172;-76
2021/06/07 02:58:55;;;;;;;2.57;2.37;;;;;;;;;;5001516;28;20203;-77
2021/06/07 03:01:21;;;;;;;5.97;3.70;;;;;;;;;;4993044;28;20462;-76
2021/06/07 03:03:47;;;;;;;3.05;2.25;;;;;;;;;;5004782;28;20461;-77
2021/06/07 03:06:13;;;;;;;4.13;3.50;;;;;;;;;;4997524;28;20197;-77
2021/06/07 03:08:39;;;;;;;4.70;3.27;;;;;;;;;;5001515;28;20430;-77
2021/06/07 03:11:08;;;;;;;2.05;1.88;;;;;;;;;;4991997;28;20466;-76
2021/06/07 03:13:34;;;;;;;3.03;2.70;;;;;;;;;;5002283;28;20651;-77
2021/06/07 03:16:00;;;;;;;3.30;2.42;;;;;;;;;;5003921;28;20195;-76
2021/06/07 03:18:27;;;;;;;2.20;1.95;;;;;;;;;;4999056;28;20306;-76
2021/06/07 03:20:53;;;;;;;2.50;2.30;;;;;;;;;;4999898;28;20187;-77
2021/06/07 03:23:20;;;;;;;1.65;1.50;;;;;;;;;;5000221;28;20205;-76
2021/06/07 03:25:48;;;;;;;2.97;2.58;;;;;;;;;;5004735;28;20226;-76
2021/06/07 03:28:15;;;;;;;2.88;2.65;;;;;;;;;;4994230;28;20554;-77
2021/06/07 03:30:41;;;;;;;2.15;1.95;;;;;;;;;;5002153;28;20287;-77
2021/06/07 03:33:07;;;;;;;2.63;2.20;;;;;;;;;;5003908;28;20195;-77
2021/06/07 03:35:36;;;;;;;2.35;1.80;;;;;;;;;;5000229;28;20183;-76
2021/06/07 03:38:03;;;;;;;3.45;2.45;;;;;;;;;;5003911;28;20179;-77
2021/06/07 03:40:31;;;;;;;3.22;2.92;;;;;;;;;;4997789;28;20577;-77
2021/06/07 03:42:57;;;;;;;1.70;1.60;;;;;;;;;;5001445;28;20566;-76
2021/06/07 03:45:23;;;;;;;4.32;2.85;;;;;;;;;;5000544;28;20306;-77
2021/06/07 03:47:49;;;;;;;4.43;1.98;;;;;;;;;;4995884;28;20214;-77
2021/06/07 03:50:17;;;;;;;3.35;2.80;;;;;;;;;;5001716;28;20204;-77
2021/06/07 03:52:44;;;;;;;4.00;3.80;;;;;;;;;;4995312;28;20609;-77
2021/06/07 03:55:10;;;;;;;2.85;2.65;;;;;;;;;;4999580;28;20230;-77
2021/06/07 03:57:36;;;;;;;2.65;2.45;;;;;;;;;;5003674;28;20249;-76
2021/06/07 04:00:06;;;;;;;8.40;3.85;;;;;;;;;;4991805;28;20211;-77
2021/06/07 04:02:32;;;;;;;2.90;2.28;;;;;;;;;;4979798;28;20203;-77
2021/06/07 04:04:58;;;;;;;3.60;3.30;;;;;;;;;;4998536;28;20236;-76
2021/06/07 04:07:24;;;;;;;3.38;2.72;;;;;;;;;;5000123;28;20510;-76
2021/06/07 04:09:50;;;;;;;2.53;2.33;;;;;;;;;;5005147;28;20191;-77
2021/06/07 04:12:16;;;;;;;3.60;3.30;;;;;;;;;;4997930;28;20195;-77
2021/06/07 04:14:42;;;;;;;1.48;1.38;;;;;;;;;;4994697;28;20430;-77
2021/06/07 04:17:08;;;;;;;2.90;2.40;;;;;;;;;;5004874;28;20623;-77
2021/06/07 04:19:34;;;;;;;3.53;3.22;;;;;;;;;;4995534;28;20431;-76
2021/06/07 04:22:00;;;;;;;1.50;1.40;;;;;;;;;;5003223;28;20195;-76
2021/06/07 04:24:27;;;;;;;3.43;3.13;;;;;;;;;;4999635;28;20183;-76
2021/06/07 04:26:53;;;;;;;2.75;2.55;;;;;;;;;;4994747;28;20433;-76
2021/06/07 04:29:19;;;;;;;3.80;2.83;;;;;;;;;;5004078;28;20183;-77
2021/06/07 04:31:45;;;;;;;2.55;2.35;;;;;;;;;;4999159;28;20235;-78
2021/06/07 04:34:11;;;;;;;2.72;2.53;;;;;;;;;;5000743;28;20192;-78
2021/06/07 04:36:37;;;;;;;2.50;1.50;;;;;;;;;;5004924;28;20199;-79
2021/06/07 04:39:06;;;;;;;2.95;2.47;;;;;;;;;;4999999;28;20431;-79
2021/06/07 04:41:33;;;;;;;3.95;2.67;;;;;;;;;;5000568;28;20215;-78
2021/06/07 04:44:00;;;;;;;3.30;2.90;;;;;;;;;;4996562;28;20183;-78
2021/06/07 04:46:29;;;;;;;2.72;2.25;;;;;;;;;;5009204;28;20208;-78
2021/06/07 04:48:55;;;;;;;4.30;2.70;;;;;;;;;;4991265;28;20283;-78
2021/06/07 04:51:21;;;;;;;2.00;1.90;;;;;;;;;;4993204;28;20278;-77
2021/06/07 04:53:47;;;;;;;2.65;2.10;;;;;;;;;;5001643;28;20422;-77
2021/06/07 04:56:13;;;;;;;3.80;3.10;;;;;;;;;;4995641;28;20631;-75
2021/06/07 04:58:39;;;;;;;2.05;1.83;;;;;;;;;;5012408;28;20497;-78
2021/06/07 05:01:08;;;;;;;1.40;1.30;;;;;;;;;;5012255;28;20180;-79
2021/06/07 05:03:34;;;;;;;3.33;3.13;;;;;;;;;;5012916;28;20186;-78
2021/06/07 05:06:01;;;;;;;4.18;2.42;;;;;;;;;;5006072;28;20187;-79
2021/06/07 05:08:28;;;;;;;1.95;1.80;;;;;;;;;;5009819;28;20196;-79
2021/06/07 05:10:54;;;;;;;1.92;1.58;;;;;;;;;;5019816;28;20215;-80
2021/06/07 05:13:20;;;;;;;2.78;1.92;;;;;;;;;;5017644;28;20231;-79
2021/06/07 05:15:46;;;;;;;2.83;2.63;;;;;;;;;;5008873;28;20170;-77
2021/06/07 05:18:13;;;;;;;2.15;1.95;;;;;;;;;;5019874;28;20191;-78
2021/06/07 05:20:39;;;;;;;4.15;2.67;;;;;;;;;;5018107;28;20278;-79
2021/06/07 05:23:05;;;;;;;2.53;2.38;;;;;;;;;;5015976;28;20203;-79
2021/06/07 05:25:32;;;;;;;3.28;3.08;;;;;;;;;;5018338;28;20175;-79
2021/06/07 05:28:00;;;;;;;3.55;2.58;;;;;;;;;;5014127;28;20251;-79
2021/06/07 05:30:27;;;;;;;3.65;3.15;;;;;;;;;;5028791;28;20282;-80
2021/06/07 05:32:53;;;;;;;1.75;1.65;;;;;;;;;;5002156;28;20203;-80
2021/06/07 05:35:20;;;;;;;2.83;2.60;;;;;;;;;;5010398;28;20179;-79
2021/06/07 05:37:46;;;;;;;4.07;3.80;;;;;;;;;;5024106;28;20203;-80
2021/06/07 05:40:13;;;;;;;3.20;1.80;;;;;;;;;;5031702;28;20188;-80
2021/06/07 05:42:39;;;;;;;2.95;1.80;;;;;;;;;;5018802;28;20287;-79
2021/06/07 05:45:07;;;;;;;1.50;1.40;;;;;;;;;;5016562;28;20214;-80
2021/06/07 05:47:33;;;;;;;2.85;2.42;;;;;;;;;;5024164;28;20215;-80
2021/06/07 05:49:59;;;;;;;2.67;2.47;;;;;;;;;;5032430;28;20184;-80
2021/06/07 05:52:25;;;;;;;7.10;4.53;;;;;;;;;;5032818;28;20206;-79
2021/06/07 05:54:51;;;;;;;3.33;3.08;;;;;;;;;;5028616;28;20415;-79
2021/06/07 05:57:17;;;;;;;3.23;2.20;;;;;;;;;;5024215;28;20715;-79
2021/06/07 05:59:43;;;;;;;2.27;2.07;;;;;;;;;;5017605;28;20390;-80
2021/06/07 06:02:10;;;;;;;2.80;2.42;;;;;;;;;;5011552;28;20475;-80
2021/06/07 06:04:36;;;;;;;2.53;2.23;;;;;;;;;;5013273;28;20186;-80
2021/06/07 06:07:03;;;;;;;2.85;1.95;;;;;;;;;;5023736;28;20844;-80
2021/06/07 06:09:29;;;;;;;1.93;1.83;;;;;;;;;;5031769;28;20173;-80
2021/06/07 06:11:57;;;;;;;2.00;1.90;;;;;;;;;;5036291;28;20481;-79
2021/06/07 06:14:23;;;;;;;2.70;1.63;;;;;;;;;;5028979;28;20483;-79
2021/06/07 06:16:49;;;;;;;2.77;2.37;;;;;;;;;;5016653;28;20400;-80
2021/06/07 06:19:15;;;;;;;5.80;2.90;;;;;;;;;;5020213;28;21336;-80
2021/06/07 06:21:41;;;;;;;1.87;1.70;;;;;;;;;;5024433;28;20465;-80
2021/06/07 06:24:08;;;;;;;2.70;2.33;;;;;;;;;;5031599;28;20417;-80
2021/06/07 06:26:34;;;;;;;2.80;2.40;;;;;;;;;;5031013;28;20491;-80
2021/06/07 06:29:00;;;;;;;4.80;2.80;;;;;;;;;;5031887;28;20416;-79
2021/06/07 06:31:26;;;;;;;3.60;1.90;;;;;;;;;;5032069;28;20447;-80
2021/06/07 06:33:52;;;;;;;5.50;3.53;;;;;;;;;;5013494;28;20429;-80
2021/06/07 06:36:18;;;;;;;4.77;2.80;;;;;;;;;;5005555;28;20499;-80
2021/06/07 06:38:47;;;;;;;2.43;2.23;;;;;;;;;;5009803;28;20488;-80
2021/06/07 06:41:13;;;;;;;3.10;1.90;;;;;;;;;;5011936;28;20426;-79
2021/06/07 06:43:39;;;;;;;1.20;1.10;;;;;;;;;;5026873;28;20419;-79
2021/06/07 06:46:06;;;;;;;8.30;2.67;;;;;;;;;;5031806;28;20392;-80
2021/06/07 06:48:35;;;;;;;3.93;2.73;;;;;;;;;;5018367;28;20415;-80
2021/06/07 06:51:02;;;;;;;2.30;2.20;;;;;;;;;;5015921;28;20480;-80
2021/06/07 06:53:28;;;;;;;2.50;2.30;;;;;;;;;;5024515;28;20449;-79
2021/06/07 06:55:54;;;;;;;2.90;2.70;;;;;;;;;;5012081;28;20430;-79
2021/06/07 06:58:20;;;;;;;3.63;3.43;;;;;;;;;;5009005;28;20399;-79
2021/06/07 07:00:47;;;;;;;3.57;2.83;;;;;;;;;;5004035;28;20482;-78
2021/06/07 07:03:17;;;;;;;5.60;4.27;;;;;;;;;;4997275;28;20447;-80
2021/06/07 07:05:43;;;;;;;3.90;1.90;;;;;;;;;;4997913;28;20483;-78
2021/06/07 07:08:10;;;;;;;2.13;2.03;;;;;;;;;;4998437;28;20903;-79
2021/06/07 07:10:37;;;;;;;3.57;2.70;;;;;;;;;;4997129;28;20436;-79
2021/06/07 07:13:03;;;;;;;5.90;3.83;;;;;;;;;;4997781;28;20434;-78
2021/06/07 07:15:29;;;;;;;1.83;1.70;;;;;;;;;;4997723;28;20516;-80
2021/06/07 07:17:55;;;;;;;3.60;3.27;;;;;;;;;;4997783;28;20461;-78
2021/06/07 07:20:21;;;;;;;2.83;2.63;;;;;;;;;;4996724;28;20481;-77
2021/06/07 07:22:47;;;;;;;3.83;2.63;;;;;;;;;;5006156;28;20470;-76
2021/06/07 07:25:14;;;;;;;2.60;2.33;;;;;;;;;;4991075;28;20446;-79
2021/06/07 07:27:41;;;;;;;2.70;2.03;;;;;;;;;;4986143;28;20429;-80
2021/06/07 07:30:09;;;;;;;3.63;2.93;;;;;;;;;;4992935;28;20408;-77
2021/06/07 07:32:39;;;;;;;1.60;1.50;;;;;;;;;;4988142;28;20943;-78
2021/06/07 07:35:05;;;;;;;1.70;1.60;;;;;;;;;;4997340;28;20890;-77
2021/06/07 07:37:33;;;;;;;2.10;1.93;;;;;;;;;;4979256;28;20437;-78
2021/06/07 07:39:59;;;;;;;3.37;1.50;;;;;;;;;;4976017;28;20385;-77
2021/06/07 07:42:25;;;;;;;5.80;2.77;;;;;;;;;;4977437;28;20715;-79
2021/06/07 07:44:51;;;;;;;2.83;2.10;;;;;;;;;;4994425;28;20404;-78
2021/06/07 07:47:18;;;;;;;2.00;1.90;;;;;;;;;;4997784;28;20401;-79
2021/06/07 07:49:45;;;;;;;3.37;3.13;;;;;;;;;;5000486;28;20405;-79
2021/06/07 07:52:11;;;;;;;2.40;2.20;;;;;;;;;;5000604;28;20478;-79
2021/06/07 07:54:38;;;;;;;2.90;2.70;;;;;;;;;;4977625;28;20396;-78
2021/06/07 07:57:05;;;;;;;1.73;1.63;;;;;;;;;;4976046;28;20409;-79
2021/06/07 07:59:31;;;;;;;2.50;1.60;;;;;;;;;;4998522;28;21074;-79
2021/06/07 08:01:57;;;;;;;3.73;2.30;;;;;;;;;;5010210;28;21155;-79
2021/06/07 08:04:23;;;;;;;2.73;2.30;;;;;;;;;;5016587;28;20853;-78
2021/06/07 08:06:50;;;;;;;2.97;2.77;;;;;;;;;;5015272;28;20395;-78
2021/06/07 08:09:16;;;;;;;4.70;3.47;;;;;;;;;;4998901;28;20401;-77
2021/06/07 08:11:42;;;;;;;2.57;2.37;;;;;;;;;;4995360;28;20459;-77
2021/06/07 08:14:08;;;;;;;1.83;1.70;;;;;;;;;;4997212;28;20909;-78
2021/06/07 08:16:34;;;;;;;5.23;3.30;;;;;;;;;;4996326;28;20404;-78
2021/06/07 08:19:00;;;;;;;3.00;2.80;;;;;;;;;;4996674;28;20393;-77
2021/06/07 08:21:26;;;;;;;3.47;2.60;;;;;;;;;;4979385;28;20953;-78
2021/06/07 08:23:52;;;;;;;2.60;2.40;;;;;;;;;;4985841;28;20420;-78
2021/06/07 08:26:18;;;;;;;2.27;2.03;;;;;;;;;;4993922;28;20406;-79
2021/06/07 08:28:44;;;;;;;2.50;2.30;;;;;;;;;;4998819;28;20415;-78
2021/06/07 08:31:10;;;;;;;2.30;2.10;;;;;;;;;;5008327;28;20440;-79
2021/06/07 08:33:36;;;;;;;4.20;1.80;;;;;;;;;;5018008;28;20392;-78
2021/06/07 08:36:06;;;;;;;3.20;3.00;;;;;;;;;;5018933;28;20415;-78
2021/06/07 08:38:32;;;;;;;2.50;2.30;;;;;;;;;;5019063;28;20462;-78
2021/06/07 08:40:58;;;;;;;3.00;2.70;;;;;;;;;;5005556;28;20426;-78
2021/06/07 08:43:25;;;;;;;1.73;1.63;;;;;;;;;;4993822;28;20475;-80
2021/06/07 08:45:51;;;;;;;2.87;2.37;;;;;;;;;;4998087;28;20410;-77
2021/06/07 08:48:18;;;;;;;1.83;1.73;;;;;;;;;;4998899;28;20781;-78
2021/06/07 08:50:44;;;;;;;2.53;2.40;;;;;;;;;;4998224;28;20436;-79
2021/06/07 08:53:10;;;;;;;4.17;3.87;;;;;;;;;;4998837;28;20830;-80
2021/06/07 08:55:38;;;;;;;4.20;3.17;;;;;;;;;;4999401;28;20406;-80
2021/06/07 08:58:05;;;;;;;3.37;3.07;;;;;;;;;;4988484;28;20473;-79
2021/06/07 09:00:33;;;;;;;2.30;1.60;;;;;;;;;;5005751;28;20492;-79
2021/06/07 09:03:20;;;;;;;3.30;3.00;;;;;;;;;;5018185;28;20528;-79
2021/06/07 09:05:52;;;;;;;2.97;2.67;;;;;;;;;;4999811;28;20763;-80
2021/06/07 09:08:18;;;;;;;3.30;2.73;;;;;;;;;;4997307;28;20458;-80
2021/06/07 09:10:46;;;;;;;3.97;2.60;;;;;;;;;;4999894;28;20490;-79
2021/06/07 09:13:12;;;;;;;2.97;2.77;;;;;;;;;;4994847;28;20870;-79
2021/06/07 09:15:40;;;;;;;3.37;2.77;;;;;;;;;;4981917;28;20392;-79
2021/06/07 09:18:08;;;;;;;3.10;2.90;;;;;;;;;;4985224;28;20419;-77
2021/06/07 09:20:35;;;;;;;3.73;3.43;;;;;;;;;;4988005;28;20386;-77
2021/06/07 09:23:05;;;;;;;2.87;2.63;;;;;;;;;;4987476;28;20411;-77
2021/06/07 09:25:32;;;;;;;2.33;2.23;;;;;;;;;;4988463;28;20386;-76
2021/06/07 09:28:03;;;;;;;3.37;3.07;;;;;;;;;;4991509;28;20446;-77
2021/06/07 09:30:29;;;;;;;2.47;2.33;;;;;;;;;;5016113;28;20450;-77
2021/06/07 09:33:14;;;;;;;2.20;2.00;;;;;;;;;;5007276;28;20437;-77
2021/06/07 09:35:39;;;;;;;5.37;2.97;;;;;;;;;;5007166;28;20877;-77
2021/06/07 09:38:06;;;;;;;2.03;1.87;;;;;;;;;;5005415;28;20403;-81
2021/06/07 09:40:32;;;;;;;3.00;2.83;;;;;;;;;;4997392;28;20413;-79
2021/06/07 09:42:59;;;;;;;1.40;1.30;;;;;;;;;;5005345;28;55013;-80
2021/06/07 09:45:45;;;;;;;2.13;2.03;;;;;;;;;;4978806;28;20426;-80
2021/06/07 09:48:15;;;;;;;3.43;1.77;;;;;;;;;;4979186;28;20495;-80
2021/06/07 09:51:02;;;;;;;2.40;2.10;;;;;;;;;;4977771;28;20814;-80
2021/06/07 09:53:52;;;;;;;3.47;2.17;;;;;;;;;;4980290;28;20940;-80
2021/06/07 09:56:19;;;;;;;1.87;1.70;;;;;;;;;;4980336;28;20493;-79
2021/06/07 09:58:46;;;;;;;1.67;1.57;;;;;;;;;;4983932;28;20397;-80
2021/06/07 10:01:14;;;;;;;2.20;2.10;;;;;;;;;;5004644;28;20449;-79
2021/06/07 10:03:44;;;;;;;2.33;1.57;;;;;;;;;;4989867;28;20404;-79
2021/06/07 10:06:16;;;;;;;1.87;1.57;;;;;;;;;;4997863;28;20417;-81
2021/06/07 10:08:43;;;;;;;1.57;1.47;;;;;;;;;;4981142;28;20486;-81
2021/06/07 10:11:17;;;;;;;1.37;1.27;;;;;;;;;;4993702;28;20474;-80
2021/06/07 10:13:44;;;;;;;2.30;1.73;;;;;;;;;;4997877;28;20477;-78
2021/06/07 10:16:10;;;;;;;2.40;1.93;;;;;;;;;;4996687;28;20481;-79
2021/06/07 10:18:36;;;;;;;1.70;1.60;;;;;;;;;;4998050;28;20907;-80
2021/06/07 10:21:04;;;;;;;2.20;2.00;;;;;;;;;;4998052;28;20424;-79
2021/06/07 10:23:31;;;;;;;1.80;1.70;;;;;;;;;;4997550;28;20408;-81
2021/06/07 10:25:58;;;;;;;2.90;2.30;;;;;;;;;;4997198;28;20482;-81
2021/06/07 10:28:26;;;;;;;2.80;2.43;;;;;;;;;;4996416;28;20467;-80
2021/06/07 10:30:52;;;;;;;1.90;1.80;;;;;;;;;;5009470;28;20898;-80
2021/06/07 10:33:25;;;;;;;2.27;1.87;;;;;;;;;;4979676;28;20429;-80
2021/06/07 10:35:51;;;;;;;1.90;1.80;;;;;;;;;;4979100;28;20421;-77
2021/06/07 10:38:27;;;;;;;3.37;2.60;;;;;;;;;;5004929;28;20935;-80
2021/06/07 10:41:16;;;;;;;1.90;1.80;;;;;;;;;;4976395;28;20395;-80
2021/06/07 10:43:43;;;;;;;2.60;1.97;;;;;;;;;;4977200;28;20428;-81
2021/06/07 10:46:21;;;;;;;2.27;2.07;;;;;;;;;;4986876;28;20440;-79
2021/06/07 10:48:50;;;;;;;2.40;2.30;;;;;;;;;;4994408;28;20799;-79
2021/06/07 10:51:16;;;;;;;1.33;1.23;;;;;;;;;;5010355;28;20467;-79
2021/06/07 10:53:42;;;;;;;2.13;1.63;;;;;;;;;;5014370;28;21154;-79
2021/06/07 10:56:09;;;;;;;1.63;1.53;;;;;;;;;;4996276;28;20399;-78
2021/06/07 10:58:35;;;;;;;1.63;1.53;;;;;;;;;;4994771;28;20447;-77
2021/06/07 11:01:02;;;;;;;1.67;1.57;;;;;;;;;;4985277;28;20508;-80
2021/06/07 11:03:29;;;;;;;1.80;1.70;;;;;;;;;;4977300;28;20446;-79
2021/06/07 11:05:56;;;;;;;2.60;2.40;;;;;;;;;;4983715;28;20417;-80
2021/06/07 11:08:25;;;;;;;2.40;2.20;;;;;;;;;;5004670;28;20441;-79
2021/06/07 11:10:57;;;;;;;1.87;1.77;;;;;;;;;;4982275;28;20465;-81
2021/06/07 11:13:23;;;;;;;2.47;2.30;;;;;;;;;;4994880;28;20460;-79
2021/06/07 11:15:59;;;;;;;3.13;2.03;;;;;;;;;;4996396;28;20411;-80
2021/06/07 11:18:25;;;;;;;1.97;1.83;;;;;;;;;;4992515;28;20494;-81
2021/06/07 11:20:53;;;;;;;2.70;2.00;;;;;;;;;;4996129;28;20381;-80
2021/06/07 11:23:29;;;;;;;2.90;2.43;;;;;;;;;;4994455;28;20443;-79
2021/06/07 11:25:56;;;;;;;3.20;3.00;;;;;;;;;;4982255;28;20454;-79
2021/06/07 11:28:39;;;;;;;2.70;2.30;;;;;;;;;;4976164;28;20495;-80
2021/06/07 11:31:06;;;;;;;3.80;3.50;;;;;;;;;;4976089;28;20437;-80
2021/06/07 11:33:48;;;;;;;3.20;2.90;;;;;;;;;;4975310;28;20835;-78
2021/06/07 11:36:32;;;;;;;4.37;2.10;;;;;;;;;;4998367;28;20468;-81
2021/06/07 11:39:00;;;;;;;3.60;3.30;;;;;;;;;;5003125;28;20424;-79
2021/06/07 11:41:45;;;;;;;3.80;2.77;;;;;;;;;;4985691;28;20451;-79
2021/06/07 11:44:12;;;;;;;2.63;2.43;;;;;;;;;;4994569;28;20418;-78
2021/06/07 11:46:41;;;;;;;3.10;2.80;;;;;;;;;;4986239;28;20437;-79
2021/06/07 11:49:08;;;;;;;1.83;1.73;;;;;;;;;;4993388;28;20427;-78
2021/06/07 11:51:35;;;;;;;1.90;1.80;;;;;;;;;;4995368;28;20467;-79
2021/06/07 11:54:20;;;;;;;2.90;2.70;;;;;;;;;;4996050;28;20442;-77
2021/06/07 11:56:56;;;;;;;2.73;2.57;;;;;;;;;;4996315;28;20453;-80
2021/06/07 11:59:26;;;;;;;1.63;1.53;;;;;;;;;;4996370;28;20436;-81
2021/06/07 12:01:52;;;;;;;2.20;2.10;;;;;;;;;;4987158;28;20933;-79
2021/06/07 12:04:28;;;;;;;2.70;2.50;;;;;;;;;;4976825;28;20975;-78
2021/06/07 12:07:05;;;;;;;1.80;1.70;;;;;;;;;;4992910;28;20907;-81
2021/06/07 12:09:31;;;;;;;1.83;1.73;;;;;;;;;;5007140;28;20799;-81
2021/06/07 12:11:58;;;;;;;1.67;1.53;;;;;;;;;;4999514;28;20858;-79
2021/06/07 12:14:27;;;;;;;1.73;1.63;;;;;;;;;;5001844;28;20446;-81
2021/06/07 12:16:53;;;;;;;1.67;1.57;;;;;;;;;;4995267;28;20524;-80
2021/06/07 12:19:19;;;;;;;1.30;1.20;;;;;;;;;;5002067;28;20382;-80
2021/06/07 12:21:45;;;;;;;0.97;0.87;;;;;;;;;;4985653;28;20432;-81
2021/06/07 12:24:15;;;;;;;1.50;1.33;;;;;;;;;;4982753;28;20397;-81
2021/06/07 12:29:32;;;;;;;1.60;1.50;;;;;;;;;;5000158;28;20469;-80
2021/06/07 12:32:01;;;;;;;1.70;1.60;;;;;;;;;;4999377;28;20808;-80
2021/06/07 12:34:27;;;;;;;1.07;0.97;;;;;;;;;;5000219;28;20446;-80
2021/06/07 12:36:53;;;;;;;1.23;1.13;;;;;;;;;;5003687;28;20790;-80
2021/06/07 12:39:19;;;;;;;1.50;1.40;;;;;;;;;;5010271;28;20457;-80
2021/06/07 12:41:46;;;;;;;1.97;1.83;;;;;;;;;;5019764;28;20456;-80
2021/06/07 12:44:11;;;;;;;1.60;1.50;;;;;;;;;;5019982;28;20463;-80
2021/06/07 12:46:55;;;;;;;1.93;1.40;;;;;;;;;;5017479;28;20482;-80
2021/06/07 12:49:23;;;;;;;1.10;1.00;;;;;;;;;;5004821;28;20396;-80
2021/06/07 12:52:03;;;;;;;1.20;0.90;;;;;;;;;;4999683;28;20474;-81
2021/06/07 12:54:31;;;;;;;1.33;1.23;;;;;;;;;;5000292;28;20411;-78
2021/06/07 12:56:59;;;;;;;1.47;1.37;;;;;;;;;;5000046;28;20465;-78
2021/06/07 12:59:33;;;;;;;2.33;1.67;;;;;;;;;;5000841;28;20454;-77
2021/06/07 13:01:59;;;;;;;1.60;1.50;;;;;;;;;;4997339;28;20430;-78
2021/06/07 13:04:29;;;;;;;1.57;1.47;;;;;;;;;;4997813;28;20788;-78
2021/06/07 13:06:55;;;;;;;1.20;1.10;;;;;;;;;;5007907;28;20414;-77
2021/06/07 13:09:40;;;;;;;1.37;1.27;;;;;;;;;;4998236;28;20436;-78
2021/06/07 13:12:07;;;;;;;0.97;0.90;;;;;;;;;;5001123;28;20481;-80
2021/06/07 13:14:33;;;;;;;1.67;1.50;;;;;;;;;;5000544;28;20502;-80
2021/06/07 13:17:12;;;;;;;1.43;1.33;;;;;;;;;;5000693;28;20439;-79
2021/06/07 13:19:43;;;;;;;1.20;1.10;;;;;;;;;;5007722;28;20383;-80
2021/06/07 13:22:16;;;;;;;1.43;1.20;;;;;;;;;;5000335;28;20421;-79
2021/06/07 13:24:42;;;;;;;1.73;1.63;;;;;;;;;;4999256;28;20429;-80
2021/06/07 13:27:31;;;;;;;1.67;1.17;;;;;;;;;;4999751;28;20426;-80
2021/06/07 13:30:07;;;;;;;1.30;1.20;;;;;;;;;;5000013;28;20518;-80
2021/06/07 13:32:34;;;;;;;1.30;1.10;;;;;;;;;;5006561;28;20453;-79
2021/06/07 13:35:03;;;;;;;1.57;1.47;;;;;;;;;;5013086;28;20410;-78
2021/06/07 13:37:32;;;;;;;1.60;1.50;;;;;;;;;;5002929;28;20449;-79
2021/06/07 13:40:06;;;;;;;1.40;1.30;;;;;;;;;;5001759;28;20532;-79
2021/06/07 13:42:39;;;;;;;5.10;1.40;;;;;;;;;;5011063;28;20458;-78
2021/06/07 13:45:06;;;;;;;1.43;1.30;;;;;;;;;;5018333;28;20407;-78
2021/06/07 13:47:35;;;;;;;1.43;1.33;;;;;;;;;;5018677;28;20900;-78
2021/06/07 13:50:03;;;;;;;1.80;1.70;;;;;;;;;;5005204;28;20450;-79
2021/06/07 13:52:49;;;;;;;1.60;1.50;;;;;;;;;;4995701;28;20601;-78
2021/06/07 13:55:18;;;;;;;1.10;0.97;;;;;;;;;;4978045;28;20426;-77
2021/06/07 13:57:53;;;;;;;1.17;1.10;;;;;;;;;;4998832;28;20383;-78
2021/06/07 14:00:19;;;;;;;1.23;1.13;;;;;;;;;;5002539;28;20430;-78
2021/06/07 14:02:45;;;;;;;1.27;1.17;;;;;;;;;;5017636;28;20434;-77
2021/06/07 14:05:11;;;;;;;1.30;1.20;;;;;;;;;;5015160;28;20902;-79
2021/06/07 14:07:37;;;;;;;1.20;1.10;;;;;;;;;;4998262;28;20447;-78
2021/06/07 14:10:03;;;;;;;0.90;0.90;;;;;;;;;;4997678;28;20425;-77
2021/06/07 14:12:29;;;;;;;1.00;0.83;;;;;;;;;;4992901;28;20550;-78
2021/06/07 14:14:55;;;;;;;1.00;0.93;;;;;;;;;;4978860;28;20436;-78
2021/06/07 14:17:21;;;;;;;1.40;1.30;;;;;;;;;;4979165;28;20410;-78
2021/06/07 14:19:47;;;;;;;1.13;1.03;;;;;;;;;;4978318;28;20458;-79
2021/06/07 14:24:40;;;;;;;1.37;1.20;;;;;;;;;;4984402;28;20430;-79
2021/06/07 14:27:10;;;;;;;1.23;1.13;;;;;;;;;;4997457;28;20519;-78
2021/06/07 14:29:38;;;;;;;0.97;0.87;;;;;;;;;;4996978;28;20939;-78
2021/06/07 14:32:04;;;;;;;1.30;1.00;;;;;;;;;;4997828;28;20557;-78
2021/06/07 14:34:30;;;;;;;0.90;0.90;;;;;;;;;;4998831;28;20417;-77
2021/06/07 14:36:57;;;;;;;1.63;0.90;;;;;;;;;;5009284;28;20420;-78
2021/06/07 14:39:23;;;;;;;1.00;0.90;;;;;;;;;;5016626;28;20423;-79
2021/06/07 14:41:49;;;;;;;1.00;0.90;;;;;;;;;;4991520;28;20475;-78
2021/06/07 14:44:15;;;;;;;1.77;1.63;;;;;;;;;;4998183;28;20477;-79
2021/06/07 14:46:41;;;;;;;1.63;0.90;;;;;;;;;;4998583;28;20418;-79
2021/06/07 14:49:07;;;;;;;1.70;1.57;;;;;;;;;;4998120;28;20466;-79
2021/06/07 14:51:33;;;;;;;1.20;1.07;;;;;;;;;;4998154;28;20471;-80
2021/06/07 14:54:00;;;;;;;1.10;1.00;;;;;;;;;;4997375;28;20407;-79